sensor_id;sensor_type;location;lat;lon;timestamp;P1;P2;P0
39714;PMS5003;54166;53.172;-6.552;2023-04-03T15:27:43;20;20;
39714;PMS5003;54166;53.172;-6.552;2023-04-03T15:30:14;19;15;
39714;PMS5003;54166;53.172;-6.552;2023-04-03T15:32:45;13;13;
39714;PMS5003;54166;53.172;-6.552;2023-04-03T15:35:14;17;15;
39714;PMS5003;54166;53.172;-6.552;2023-04-03T15:37:42;12;12;
39714;PMS5003;54166;53.172;-6.552;2023-04-03T15:40:10;16;16;
39714;PMS5003;54166;53.172;-6.552;2023-04-03T15:42:38;13;12;
39714;PMS5003;54166;53.172;-6.552;2023-04-03T15:45:07;15;13;
39714;PMS5003;54166;53.172;-6.552;2023-04-03T15:47:36;13;12;
39714;PMS5003;54166;53.172;-6.552;2023-04-03T15:50:04;10;10;
39714;PMS5003;54166;53.172;-6.552;2023-04-03T15:52:32;11;11;
39714;PMS5003;54166;53.172;-6.552;2023-04-03T15:55:00;14;14;
39714;PMS5003;54166;53.172;-6.552;2023-04-03T15:57:27;11;11;
39714;PMS5003;54166;53.172;-6.552;2023-04-03T15:59:55;8;8;
39714;PMS5003;54166;53.172;-6.552;2023-04-03T16:02:23;10;10;
39714;PMS5003;54166;53.172;-6.552;2023-04-03T16:04:51;7;6;
39714;PMS5003;54166;53.172;-6.552;2023-04-03T16:07:18;12;12;
39714;PMS5003;54166;53.172;-6.552;2023-04-03T16:09:46;10;10;
39714;PMS5003;54166;53.172;-6.552;2023-04-03T16:12:14;8;8;
39714;PMS5003;54166;53.172;-6.552;2023-04-03T16:14:41;8;8;
39714;PMS5003;54166;53.172;-6.552;2023-04-03T16:17:09;8;8;
39714;PMS5003;54166;53.172;-6.552;2023-04-03T16:19:42;7;7;
39714;PMS5003;54166;53.172;-6.552;2023-04-03T16:22:10;6;6;
39714;PMS5003;54166;53.172;-6.552;2023-04-03T16:24:38;5;5;
39714;PMS5003;54166;53.172;-6.552;2023-04-03T16:27:05;7;7;
39714;PMS5003;54166;53.172;-6.552;2023-04-03T16:29:33;6;6;
39714;PMS5003;54166;53.172;-6.552;2023-04-03T16:32:01;6;6;
39714;PMS5003;54166;53.172;-6.552;2023-04-03T16:34:29;6;6;
39714;PMS5003;54166;53.172;-6.552;2023-04-03T16:36:57;8;8;
39714;PMS5003;54166;53.172;-6.552;2023-04-03T16:39:25;7;7;
39714;PMS5003;54166;53.172;-6.552;2023-04-03T16:41:53;8;7;
39714;PMS5003;54166;53.172;-6.552;2023-04-03T16:44:21;8;8;
39714;PMS5003;54166;53.172;-6.552;2023-04-03T16:46:48;7;7;
39714;PMS5003;54166;53.172;-6.552;2023-04-03T16:49:16;6;6;
39714;PMS5003;54166;53.172;-6.552;2023-04-03T16:51:44;10;9;
39714;PMS5003;54166;53.172;-6.552;2023-04-03T16:54:11;9;9;
39714;PMS5003;54166;53.172;-6.552;2023-04-03T16:56:39;8;8;
39714;PMS5003;54166;53.172;-6.552;2023-04-03T16:59:07;6;6;
39714;PMS5003;54166;53.172;-6.552;2023-04-03T17:01:35;7;7;
39714;PMS5003;54166;53.172;-6.552;2023-04-03T17:04:02;7;7;
39714;PMS5003;54166;53.172;-6.552;2023-04-03T17:06:30;7;7;
39714;PMS5003;54166;53.172;-6.552;2023-04-03T17:08:58;7;7;
39714;PMS5003;54166;53.172;-6.552;2023-04-03T17:11:26;10;10;
39714;PMS5003;54166;53.172;-6.552;2023-04-03T17:13:53;8;8;
39714;PMS5003;54166;53.172;-6.552;2023-04-03T17:16:22;11;10;
39714;PMS5003;54166;53.172;-6.552;2023-04-03T17:18:51;9;9;
39714;PMS5003;54166;53.172;-6.552;2023-04-03T17:21:19;8;8;
39714;PMS5003;54166;53.172;-6.552;2023-04-03T17:23:48;10;9;
39714;PMS5003;54166;53.172;-6.552;2023-04-03T17:26:20;7;7;
39714;PMS5003;54166;53.172;-6.552;2023-04-03T17:28:49;5;5;
39714;PMS5003;54166;53.172;-6.552;2023-04-03T17:31:17;8;8;
39714;PMS5003;54166;53.172;-6.552;2023-04-03T17:33:45;9;9;
39714;PMS5003;54166;53.172;-6.552;2023-04-03T17:36:13;11;10;
39714;PMS5003;54166;53.172;-6.552;2023-04-03T17:38:41;9;8;
39714;PMS5003;54166;53.172;-6.552;2023-04-03T17:41:08;9;9;
39714;PMS5003;54166;53.172;-6.552;2023-04-03T17:43:36;10;9;
39714;PMS5003;54166;53.172;-6.552;2023-04-03T17:46:06;10;9;
39714;PMS5003;54166;53.172;-6.552;2023-04-03T17:48:36;9;9;
39714;PMS5003;54166;53.172;-6.552;2023-04-03T17:51:06;8;8;
39714;PMS5003;54166;53.172;-6.552;2023-04-03T17:53:37;8;8;
39714;PMS5003;54166;53.172;-6.552;2023-04-03T17:56:05;12;11;
39714;PMS5003;54166;53.172;-6.552;2023-04-03T17:58:34;54;53;
39714;PMS5003;54166;53.172;-6.552;2023-04-03T18:01:10;278;267;
39714;PMS5003;54166;53.172;-6.552;2023-04-03T18:03:41;134;128;
39714;PMS5003;54166;53.172;-6.552;2023-04-03T18:06:10;82;80;
39714;PMS5003;54166;53.172;-6.552;2023-04-03T18:08:41;76;75;
39714;PMS5003;54166;53.172;-6.552;2023-04-03T18:11:12;67;65;
39714;PMS5003;54166;53.172;-6.552;2023-04-03T18:13:41;52;51;
39714;PMS5003;54166;53.172;-6.552;2023-04-03T18:16:10;36;36;
39714;PMS5003;54166;53.172;-6.552;2023-04-03T18:18:39;42;42;
39714;PMS5003;54166;53.172;-6.552;2023-04-03T18:21:07;42;38;
39714;PMS5003;54166;53.172;-6.552;2023-04-03T18:23:39;37;36;
39714;PMS5003;54166;53.172;-6.552;2023-04-03T18:26:09;35;34;
39714;PMS5003;54166;53.172;-6.552;2023-04-03T18:28:40;32;32;
39714;PMS5003;54166;53.172;-6.552;2023-04-03T18:31:12;34;33;
39714;PMS5003;54166;53.172;-6.552;2023-04-03T18:33:43;30;28;
39714;PMS5003;54166;53.172;-6.552;2023-04-03T18:36:11;31;31;
39714;PMS5003;54166;53.172;-6.552;2023-04-03T18:38:39;36;35;
39714;PMS5003;54166;53.172;-6.552;2023-04-03T18:41:07;32;30;
39714;PMS5003;54166;53.172;-6.552;2023-04-03T18:43:35;27;27;
39714;PMS5003;54166;53.172;-6.552;2023-04-03T18:46:05;32;32;
39714;PMS5003;54166;53.172;-6.552;2023-04-03T18:48:33;27;25;
39714;PMS5003;54166;53.172;-6.552;2023-04-03T18:51:01;21;20;
39714;PMS5003;54166;53.172;-6.552;2023-04-03T18:53:29;22;21;
39714;PMS5003;54166;53.172;-6.552;2023-04-03T18:55:56;20;19;
39714;PMS5003;54166;53.172;-6.552;2023-04-03T18:58:24;14;14;
39714;PMS5003;54166;53.172;-6.552;2023-04-03T19:00:52;18;17;
39714;PMS5003;54166;53.172;-6.552;2023-04-03T19:03:19;16;15;
39714;PMS5003;54166;53.172;-6.552;2023-04-03T19:05:47;14;14;
39714;PMS5003;54166;53.172;-6.552;2023-04-03T19:08:15;17;16;
39714;PMS5003;54166;53.172;-6.552;2023-04-03T19:10:44;17;16;
39714;PMS5003;54166;53.172;-6.552;2023-04-03T19:13:12;14;14;
39714;PMS5003;54166;53.172;-6.552;2023-04-03T19:15:39;14;13;
39714;PMS5003;54166;53.172;-6.552;2023-04-03T19:18:07;11;11;
39714;PMS5003;54166;53.172;-6.552;2023-04-03T19:20:35;11;10;
39714;PMS5003;54166;53.172;-6.552;2023-04-03T19:23:02;11;11;
39714;PMS5003;54166;53.172;-6.552;2023-04-03T19:25:30;12;12;
39714;PMS5003;54166;53.172;-6.552;2023-04-03T19:27:58;11;11;
39714;PMS5003;54166;53.172;-6.552;2023-04-03T19:30:26;11;11;
39714;PMS5003;54166;53.172;-6.552;2023-04-03T19:32:54;13;13;
39714;PMS5003;54166;53.172;-6.552;2023-04-03T19:35:21;12;12;
39714;PMS5003;54166;53.172;-6.552;2023-04-03T19:37:49;12;11;
39714;PMS5003;54166;53.172;-6.552;2023-04-03T19:40:17;14;14;
39714;PMS5003;54166;53.172;-6.552;2023-04-03T19:42:45;11;11;
39714;PMS5003;54166;53.172;-6.552;2023-04-03T19:45:13;9;9;
39714;PMS5003;54166;53.172;-6.552;2023-04-03T19:47:40;10;10;
39714;PMS5003;54166;53.172;-6.552;2023-04-03T19:50:09;12;11;
39714;PMS5003;54166;53.172;-6.552;2023-04-03T19:52:37;10;10;
39714;PMS5003;54166;53.172;-6.552;2023-04-03T19:55:05;10;10;
39714;PMS5003;54166;53.172;-6.552;2023-04-03T19:57:33;12;11;
39714;PMS5003;54166;53.172;-6.552;2023-04-03T20:00:01;9;9;
39714;PMS5003;54166;53.172;-6.552;2023-04-03T20:02:30;11;9;
39714;PMS5003;54166;53.172;-6.552;2023-04-03T20:04:57;8;8;
39714;PMS5003;54166;53.172;-6.552;2023-04-03T20:07:25;9;9;
39714;PMS5003;54166;53.172;-6.552;2023-04-03T20:09:53;9;8;
39714;PMS5003;54166;53.172;-6.552;2023-04-03T20:12:21;9;9;
39714;PMS5003;54166;53.172;-6.552;2023-04-03T20:14:49;10;9;
39714;PMS5003;54166;53.172;-6.552;2023-04-03T20:17:17;9;9;
39714;PMS5003;54166;53.172;-6.552;2023-04-03T20:19:44;11;11;
39714;PMS5003;54166;53.172;-6.552;2023-04-03T20:22:12;10;10;
39714;PMS5003;54166;53.172;-6.552;2023-04-03T20:24:40;9;9;
39714;PMS5003;54166;53.172;-6.552;2023-04-03T20:27:08;8;8;
39714;PMS5003;54166;53.172;-6.552;2023-04-03T20:29:35;10;8;
39714;PMS5003;54166;53.172;-6.552;2023-04-03T20:32:03;9;9;
39714;PMS5003;54166;53.172;-6.552;2023-04-03T20:34:31;9;9;
39714;PMS5003;54166;53.172;-6.552;2023-04-03T20:36:59;9;9;
39714;PMS5003;54166;53.172;-6.552;2023-04-03T20:39:27;6;6;
39714;PMS5003;54166;53.172;-6.552;2023-04-03T20:41:55;8;7;
39714;PMS5003;54166;53.172;-6.552;2023-04-03T20:44:22;8;8;
39714;PMS5003;54166;53.172;-6.552;2023-04-03T20:46:50;42;41;
39714;PMS5003;54166;53.172;-6.552;2023-04-03T20:49:18;26;26;
39714;PMS5003;54166;53.172;-6.552;2023-04-03T20:51:46;21;21;
39714;PMS5003;54166;53.172;-6.552;2023-04-03T20:54:14;22;20;
39714;PMS5003;54166;53.172;-6.552;2023-04-03T20:56:42;18;16;
39714;PMS5003;54166;53.172;-6.552;2023-04-03T20:59:15;19;17;
39714;PMS5003;54166;53.172;-6.552;2023-04-03T21:01:44;21;19;
39714;PMS5003;54166;53.172;-6.552;2023-04-03T21:04:13;17;16;
39714;PMS5003;54166;53.172;-6.552;2023-04-03T21:20:27;14;13;
39714;PMS5003;54166;53.172;-6.552;2023-04-03T21:22:57;20;18;
39714;PMS5003;54166;53.172;-6.552;2023-04-03T21:25:26;24;22;
39714;PMS5003;54166;53.172;-6.552;2023-04-03T21:27:54;18;17;
39714;PMS5003;54166;53.172;-6.552;2023-04-03T21:30:22;16;14;
39714;PMS5003;54166;53.172;-6.552;2023-04-03T21:32:49;14;13;
39714;PMS5003;54166;53.172;-6.552;2023-04-03T21:35:16;16;15;
39714;PMS5003;54166;53.172;-6.552;2023-04-03T21:37:44;15;14;
39714;PMS5003;54166;53.172;-6.552;2023-04-03T21:40:11;19;18;
39714;PMS5003;54166;53.172;-6.552;2023-04-03T21:42:39;19;18;
39714;PMS5003;54166;53.172;-6.552;2023-04-03T21:45:07;13;13;
39714;PMS5003;54166;53.172;-6.552;2023-04-03T21:47:35;16;13;
39714;PMS5003;54166;53.172;-6.552;2023-04-03T21:50:04;14;13;
39714;PMS5003;54166;53.172;-6.552;2023-04-03T21:52:31;12;12;
39714;PMS5003;54166;53.172;-6.552;2023-04-03T21:54:59;14;12;
39714;PMS5003;54166;53.172;-6.552;2023-04-03T21:57:27;11;11;
39714;PMS5003;54166;53.172;-6.552;2023-04-03T22:00:00;13;12;
39714;PMS5003;54166;53.172;-6.552;2023-04-03T22:02:28;11;11;
39714;PMS5003;54166;53.172;-6.552;2023-04-03T22:04:56;13;12;
39714;PMS5003;54166;53.172;-6.552;2023-04-03T22:07:23;12;12;
39714;PMS5003;54166;53.172;-6.552;2023-04-03T22:09:51;13;12;
39714;PMS5003;54166;53.172;-6.552;2023-04-03T22:12:19;13;12;
39714;PMS5003;54166;53.172;-6.552;2023-04-03T22:14:47;14;13;
39714;PMS5003;54166;53.172;-6.552;2023-04-03T22:17:15;10;9;
39714;PMS5003;54166;53.172;-6.552;2023-04-03T22:19:42;11;11;
39714;PMS5003;54166;53.172;-6.552;2023-04-03T22:22:10;12;10;
39714;PMS5003;54166;53.172;-6.552;2023-04-03T22:24:38;11;11;
39714;PMS5003;54166;53.172;-6.552;2023-04-03T22:27:06;8;8;
39714;PMS5003;54166;53.172;-6.552;2023-04-03T22:29:33;16;15;
39714;PMS5003;54166;53.172;-6.552;2023-04-03T22:32:01;9;9;
39714;PMS5003;54166;53.172;-6.552;2023-04-03T22:34:29;10;10;
39714;PMS5003;54166;53.172;-6.552;2023-04-03T22:36:56;12;11;
39714;PMS5003;54166;53.172;-6.552;2023-04-03T22:39:24;9;9;
39714;PMS5003;54166;53.172;-6.552;2023-04-03T22:41:52;9;9;
39714;PMS5003;54166;53.172;-6.552;2023-04-03T22:44:20;10;10;
39714;PMS5003;54166;53.172;-6.552;2023-04-03T22:46:48;8;8;
39714;PMS5003;54166;53.172;-6.552;2023-04-03T22:49:15;11;11;
39714;PMS5003;54166;53.172;-6.552;2023-04-03T22:51:43;9;9;
39714;PMS5003;54166;53.172;-6.552;2023-04-03T22:54:11;8;8;
39714;PMS5003;54166;53.172;-6.552;2023-04-03T22:56:39;9;9;
39714;PMS5003;54166;53.172;-6.552;2023-04-03T22:59:11;9;8;
39714;PMS5003;54166;53.172;-6.552;2023-04-03T23:01:39;9;9;
39714;PMS5003;54166;53.172;-6.552;2023-04-03T23:04:07;8;8;
39714;PMS5003;54166;53.172;-6.552;2023-04-03T23:06:35;10;10;
39714;PMS5003;54166;53.172;-6.552;2023-04-03T23:09:03;9;9;
39714;PMS5003;54166;53.172;-6.552;2023-04-03T23:11:31;10;9;
39714;PMS5003;54166;53.172;-6.552;2023-04-03T23:13:58;9;9;
39714;PMS5003;54166;53.172;-6.552;2023-04-03T23:16:26;8;8;
39714;PMS5003;54166;53.172;-6.552;2023-04-03T23:18:54;9;9;
39714;PMS5003;54166;53.172;-6.552;2023-04-03T23:21:22;8;7;
39714;PMS5003;54166;53.172;-6.552;2023-04-03T23:23:50;8;7;
39714;PMS5003;54166;53.172;-6.552;2023-04-03T23:26:18;7;7;
39714;PMS5003;54166;53.172;-6.552;2023-04-03T23:28:46;9;6;
39714;PMS5003;54166;53.172;-6.552;2023-04-03T23:31:14;8;8;
39714;PMS5003;54166;53.172;-6.552;2023-04-03T23:33:42;7;7;
39714;PMS5003;54166;53.172;-6.552;2023-04-03T23:36:10;11;9;
39714;PMS5003;54166;53.172;-6.552;2023-04-03T23:38:37;6;6;
39714;PMS5003;54166;53.172;-6.552;2023-04-03T23:41:05;8;8;
39714;PMS5003;54166;53.172;-6.552;2023-04-03T23:43:33;7;7;
39714;PMS5003;54166;53.172;-6.552;2023-04-03T23:46:01;7;7;
39714;PMS5003;54166;53.172;-6.552;2023-04-03T23:48:32;7;7;
39714;PMS5003;54166;53.172;-6.552;2023-04-03T23:51:04;8;8;
39714;PMS5003;54166;53.172;-6.552;2023-04-03T23:53:34;7;7;
39714;PMS5003;54166;53.172;-6.552;2023-04-03T23:56:08;6;6;
39714;PMS5003;54166;53.172;-6.552;2023-04-03T23:58:36;7;7;
